Time;durP1;ratioP1;P1;durP2;ratioP2;P2;SDS_P1;SDS_P2;PMS_P1;PMS_P2;Temp;Humidity;BMP_temperature;BMP_pressure;BME280_temperature;BME280_humidity;BME280_pressure;Samples;Min_cycle;Max_cycle;Signal;HPM_P1;HPM_P2
2023/08/29 00:00:30;;;;;;;0.00;0.00;;;14.80;99.90;;;;;;5051552;28;20178;-64
2023/08/29 00:02:56;;;;;;;0.00;0.00;;;14.80;99.90;;;;;;5051698;28;20177;-65
2023/08/29 00:05:21;;;;;;;0.00;0.00;;;14.80;99.90;;;;;;5051683;28;20196;-65
2023/08/29 00:07:47;;;;;;;0.00;0.00;;;14.80;99.90;;;;;;5052100;28;20521;-64
2023/08/29 00:10:12;;;;;;;0.00;0.00;;;14.80;99.90;;;;;;5051661;28;20583;-65
2023/08/29 00:12:41;;;;;;;0.00;0.00;;;14.80;99.90;;;;;;5052066;28;20656;-64
2023/08/29 00:15:08;;;;;;;0.00;0.00;;;14.80;99.90;;;;;;5051399;28;20214;-65
2023/08/29 00:17:33;;;;;;;0.00;0.00;;;14.80;99.90;;;;;;5051559;28;20250;-64
2023/08/29 00:20:00;;;;;;;0.00;0.00;;;14.80;99.90;;;;;;5051872;28;20629;-64
2023/08/29 00:22:26;;;;;;;0.00;0.00;;;14.80;99.90;;;;;;5051340;28;20844;-65
2023/08/29 00:24:52;;;;;;;0.00;0.00;;;14.70;99.90;;;;;;5051362;28;20181;-65
2023/08/29 00:27:19;;;;;;;0.00;0.00;;;14.70;99.90;;;;;;5051342;28;20188;-65
2023/08/29 00:29:44;;;;;;;0.00;0.00;;;14.70;99.90;;;;;;5050890;28;20217;-64
2023/08/29 00:32:10;;;;;;;0.00;0.00;;;14.70;99.90;;;;;;5048644;28;20253;-65
2023/08/29 00:34:37;;;;;;;0.00;0.00;;;14.70;99.90;;;;;;5051133;28;20177;-65
2023/08/29 00:37:02;;;;;;;0.00;0.00;;;14.60;99.90;;;;;;5050756;28;20192;-65
2023/08/29 00:39:28;;;;;;;0.00;0.00;;;14.60;99.90;;;;;;5050805;28;20182;-64
2023/08/29 00:41:54;;;;;;;0.00;0.00;;;14.60;99.90;;;;;;5050352;28;20190;-65
2023/08/29 00:44:20;;;;;;;0.00;0.00;;;14.60;99.90;;;;;;5050949;28;20655;-65
2023/08/29 00:46:46;;;;;;;0.00;0.00;;;14.60;99.90;;;;;;5050783;28;20675;-65
2023/08/29 00:49:15;;;;;;;0.00;0.00;;;14.60;99.90;;;;;;5050506;28;20553;-65
2023/08/29 00:51:40;;;;;;;0.00;0.00;;;14.60;99.90;;;;;;5050563;28;20243;-65
2023/08/29 00:54:07;;;;;;;0.00;0.00;;;14.70;99.90;;;;;;5045961;28;20189;-64
2023/08/29 00:56:33;;;;;;;0.00;0.00;;;14.70;99.90;;;;;;5051155;28;20188;-64
2023/08/29 00:59:01;;;;;;;0.00;0.00;;;14.60;99.90;;;;;;5050925;28;20177;-65
2023/08/29 01:01:28;;;;;;;0.00;0.00;;;14.70;99.90;;;;;;5050199;28;20617;-64
2023/08/29 01:03:54;;;;;;;0.00;0.00;;;14.70;99.90;;;;;;5050220;28;20181;-64
2023/08/29 01:06:20;;;;;;;0.00;0.00;;;14.70;99.90;;;;;;5050616;28;20189;-64
2023/08/29 01:08:46;;;;;;;0.00;0.00;;;14.70;99.90;;;;;;5050693;28;20251;-65
2023/08/29 01:11:28;;;;;;;0.00;0.00;;;14.70;99.90;;;;;;5050325;28;20217;-64
2023/08/29 01:14:01;;;;;;;0.17;0.17;;;14.70;99.90;;;;;;5050414;28;20181;-64
2023/08/29 01:16:35;;;;;;;0.00;0.00;;;14.80;99.90;;;;;;5050510;28;20185;-65
2023/08/29 01:19:06;;;;;;;0.00;0.00;;;14.80;99.90;;;;;;5042383;28;20177;-64
2023/08/29 01:22:00;;;;;;;0.00;0.00;;;14.80;99.90;;;;;;5050331;28;20192;-65
2023/08/29 01:24:46;;;;;;;0.00;0.00;;;14.80;99.90;;;;;;5037321;28;20656;-64
2023/08/29 01:27:13;;;;;;;0.00;0.00;;;14.80;99.90;;;;;;5049792;28;20272;-64
2023/08/29 01:29:40;;;;;;;0.00;0.00;;;14.80;99.90;;;;;;5050226;28;20223;-64
2023/08/29 01:32:06;;;;;;;0.00;0.00;;;14.80;99.90;;;;;;5048269;28;20235;-64
2023/08/29 01:34:32;;;;;;;0.00;0.00;;;14.80;99.90;;;;;;5050379;28;20207;-65
2023/08/29 01:36:58;;;;;;;0.00;0.00;;;14.80;99.90;;;;;;5050354;28;20684;-64
2023/08/29 01:39:24;;;;;;;0.00;0.00;;;14.80;99.90;;;;;;5049715;28;20186;-65
2023/08/29 01:41:50;;;;;;;0.00;0.00;;;14.80;99.90;;;;;;5050162;28;20190;-65
2023/08/29 01:44:15;;;;;;;0.00;0.00;;;14.80;99.90;;;;;;5049748;28;20182;-65
2023/08/29 01:46:41;;;;;;;0.00;0.00;;;14.80;99.90;;;;;;5049884;28;20173;-65
2023/08/29 01:49:07;;;;;;;0.00;0.00;;;14.80;99.90;;;;;;5049526;28;20544;-64
2023/08/29 01:51:33;;;;;;;0.00;0.00;;;14.70;99.90;;;;;;5050093;28;20216;-64
2023/08/29 01:53:58;;;;;;;0.20;0.20;;;14.70;99.90;;;;;;5051331;28;20287;-65
2023/08/29 01:56:28;;;;;;;0.00;0.00;;;14.70;99.90;;;;;;5054121;28;20192;-65
2023/08/29 01:58:54;;;;;;;0.00;0.00;;;14.70;99.90;;;;;;5054187;28;20633;-65
2023/08/29 02:01:20;;;;;;;0.00;0.00;;;14.70;99.90;;;;;;5053764;28;20209;-65
2023/08/29 02:03:46;;;;;;;0.00;0.00;;;14.70;99.90;;;;;;5052734;28;20205;-65
2023/08/29 02:06:13;;;;;;;0.25;0.10;;;14.70;99.90;;;;;;5053517;28;20629;-64
2023/08/29 02:08:39;;;;;;;0.00;0.00;;;14.70;99.90;;;;;;5054151;28;20177;-65
2023/08/29 02:11:04;;;;;;;0.00;0.00;;;14.70;99.90;;;;;;5053782;28;20240;-64
2023/08/29 02:13:30;;;;;;;0.00;0.00;;;14.70;99.90;;;;;;5054138;28;20189;-64
2023/08/29 02:15:55;;;;;;;0.00;0.00;;;14.60;99.90;;;;;;5053466;28;20268;-64
2023/08/29 02:18:21;;;;;;;0.00;0.00;;;14.60;99.90;;;;;;5053728;28;20192;-64
2023/08/29 02:20:46;;;;;;;0.00;0.00;;;14.60;99.90;;;;;;5053766;28;20185;-65
2023/08/29 02:23:12;;;;;;;0.00;0.00;;;14.60;99.90;;;;;;5053527;28;20189;-65
2023/08/29 02:25:37;;;;;;;0.00;0.00;;;14.60;99.90;;;;;;5053863;28;20178;-65
2023/08/29 02:28:03;;;;;;;0.00;0.00;;;14.60;99.90;;;;;;5053110;28;20186;-64
2023/08/29 02:30:29;;;;;;;0.00;0.00;;;14.60;99.90;;;;;;5051319;28;20252;-64
2023/08/29 02:32:54;;;;;;;0.00;0.00;;;14.70;99.90;;;;;;5053568;28;20201;-65
2023/08/29 02:35:20;;;;;;;0.00;0.00;;;14.60;99.90;;;;;;5053471;28;20687;-65
2023/08/29 02:37:45;;;;;;;0.00;0.00;;;14.60;99.90;;;;;;5053506;28;20234;-64
2023/08/29 02:40:11;;;;;;;0.00;0.00;;;14.50;99.90;;;;;;5053699;28;20653;-64
2023/08/29 02:42:37;;;;;;;0.00;0.00;;;14.50;99.90;;;;;;5053736;28;20564;-64
2023/08/29 02:45:06;;;;;;;0.00;0.00;;;14.40;99.90;;;;;;5053628;28;20178;-66
2023/08/29 02:47:31;;;;;;;0.00;0.00;;;14.40;99.90;;;;;;5053362;28;20192;-64
2023/08/29 02:49:57;;;;;;;0.00;0.00;;;14.40;99.90;;;;;;5053358;28;20213;-65
2023/08/29 02:52:22;;;;;;;0.00;0.00;;;14.40;99.90;;;;;;5052912;28;20186;-65
2023/08/29 02:54:48;;;;;;;0.00;0.00;;;14.40;99.90;;;;;;5053130;28;20192;-65
2023/08/29 02:57:13;;;;;;;0.00;0.00;;;14.40;99.90;;;;;;5053297;28;20170;-65
2023/08/29 02:59:39;;;;;;;0.00;0.00;;;14.40;99.90;;;;;;5053484;28;20209;-65
2023/08/29 03:02:05;;;;;;;0.10;0.10;;;14.40;99.90;;;;;;5053153;28;20212;-65
2023/08/29 03:04:30;;;;;;;0.00;0.00;;;14.50;99.90;;;;;;5051367;28;20181;-65
2023/08/29 03:06:56;;;;;;;0.00;0.00;;;14.40;99.90;;;;;;5053126;28;20192;-65
2023/08/29 03:09:22;;;;;;;0.00;0.00;;;14.40;99.90;;;;;;5053167;28;20221;-64
2023/08/29 03:11:48;;;;;;;0.00;0.00;;;14.40;99.90;;;;;;5053082;28;20188;-65
2023/08/29 03:14:14;;;;;;;0.00;0.00;;;14.40;99.90;;;;;;5052961;28;20209;-65
2023/08/29 03:16:40;;;;;;;0.00;0.00;;;14.40;99.90;;;;;;5053366;28;20536;-65
2023/08/29 03:19:05;;;;;;;0.00;0.00;;;14.40;99.90;;;;;;5052851;28;20253;-65
2023/08/29 03:21:31;;;;;;;0.00;0.00;;;14.40;99.90;;;;;;5052778;28;20268;-65
2023/08/29 03:23:57;;;;;;;0.00;0.00;;;14.40;99.90;;;;;;5053026;28;20181;-65
2023/08/29 03:26:22;;;;;;;0.00;0.00;;;14.40;99.90;;;;;;5052397;28;20603;-64
2023/08/29 03:28:48;;;;;;;0.00;0.00;;;14.40;99.90;;;;;;5052360;28;20205;-64
2023/08/29 03:31:16;;;;;;;0.00;0.00;;;14.40;99.90;;;;;;5047265;28;20636;-63
2023/08/29 03:33:43;;;;;;;0.00;0.00;;;14.40;99.90;;;;;;5047710;28;20265;-64
2023/08/29 03:36:09;;;;;;;0.00;0.00;;;14.30;99.90;;;;;;5057299;28;20173;-64
2023/08/29 03:38:36;;;;;;;0.00;0.00;;;14.30;99.90;;;;;;5055004;28;20235;-64
2023/08/29 03:41:03;;;;;;;0.00;0.00;;;14.30;99.90;;;;;;5052599;28;20260;-64
2023/08/29 03:43:30;;;;;;;0.00;0.00;;;14.30;99.90;;;;;;5052241;28;20192;-63
2023/08/29 03:46:08;;;;;;;0.00;0.00;;;14.30;99.90;;;;;;5051872;28;20193;-62
2023/08/29 03:48:35;;;;;;;0.00;0.00;;;14.30;99.90;;;;;;5050486;28;20214;-63
2023/08/29 03:51:07;;;;;;;0.00;0.00;;;14.30;99.90;;;;;;5036406;28;20216;-63
2023/08/29 03:53:34;;;;;;;0.00;0.00;;;14.30;99.90;;;;;;5052129;28;20181;-64
2023/08/29 03:56:02;;;;;;;0.00;0.00;;;14.40;99.90;;;;;;5051347;28;20185;-60
2023/08/29 03:58:28;;;;;;;0.00;0.00;;;14.40;99.90;;;;;;5051680;28;20180;-59
2023/08/29 04:00:54;;;;;;;0.08;0.08;;;14.40;99.90;;;;;;5051854;28;20177;-61
2023/08/29 04:03:19;;;;;;;0.00;0.00;;;14.40;99.90;;;;;;5051312;28;20687;-59
2023/08/29 04:05:46;;;;;;;0.00;0.00;;;14.40;99.90;;;;;;5052167;28;20539;-59
2023/08/29 04:08:11;;;;;;;0.00;0.00;;;14.40;99.90;;;;;;5051662;28;20182;-64
2023/08/29 04:10:38;;;;;;;0.10;0.10;;;14.40;99.90;;;;;;5050623;28;20223;-63
2023/08/29 04:13:05;;;;;;;0.00;0.00;;;14.40;99.90;;;;;;5051655;28;20185;-63
2023/08/29 04:15:33;;;;;;;0.00;0.00;;;14.30;99.90;;;;;;5051853;28;20183;-63
2023/08/29 04:17:58;;;;;;;0.00;0.00;;;14.30;99.90;;;;;;5050886;28;20534;-63
2023/08/29 04:20:24;;;;;;;0.00;0.00;;;14.30;99.90;;;;;;5051993;28;20280;-64
2023/08/29 04:22:51;;;;;;;0.00;0.00;;;14.30;99.90;;;;;;5051621;28;20235;-64
2023/08/29 04:25:17;;;;;;;0.00;0.00;;;14.30;99.90;;;;;;5051771;28;20181;-64
2023/08/29 04:27:43;;;;;;;0.15;0.05;;;14.30;99.90;;;;;;5052169;28;20682;-63
2023/08/29 04:30:09;;;;;;;0.00;0.00;;;14.30;99.90;;;;;;5051443;28;20229;-63
2023/08/29 04:32:37;;;;;;;0.00;0.00;;;14.30;99.90;;;;;;5051700;28;20197;-63
2023/08/29 04:35:05;;;;;;;0.00;0.00;;;14.30;99.90;;;;;;5051706;28;20637;-63
2023/08/29 04:37:31;;;;;;;0.00;0.00;;;14.30;99.90;;;;;;5051694;28;20539;-63
2023/08/29 04:39:57;;;;;;;0.00;0.00;;;14.30;99.90;;;;;;5051827;28;20181;-64
2023/08/29 04:42:22;;;;;;;1.77;0.90;;;14.20;99.90;;;;;;5051570;28;20239;-64
2023/08/29 04:44:48;;;;;;;0.00;0.00;;;14.30;99.90;;;;;;5051522;28;20173;-63
2023/08/29 04:47:13;;;;;;;0.00;0.00;;;14.30;99.90;;;;;;5051374;28;20227;-63
2023/08/29 04:49:39;;;;;;;0.00;0.00;;;14.30;99.90;;;;;;5051649;28;20213;-64
2023/08/29 04:52:05;;;;;;;0.00;0.00;;;14.30;99.90;;;;;;5051281;28;20268;-63
2023/08/29 04:54:31;;;;;;;0.00;0.00;;;14.30;99.90;;;;;;5051592;28;20177;-64
2023/08/29 04:56:56;;;;;;;0.00;0.00;;;14.30;99.90;;;;;;5051365;28;20829;-63
2023/08/29 04:59:22;;;;;;;0.00;0.00;;;14.30;99.90;;;;;;5051371;28;20189;-64
2023/08/29 05:01:47;;;;;;;0.00;0.00;;;14.30;99.90;;;;;;5051425;28;20180;-64
2023/08/29 05:04:13;;;;;;;0.00;0.00;;;14.30;99.90;;;;;;5051384;28;20177;-64
2023/08/29 05:06:38;;;;;;;0.00;0.00;;;14.30;99.90;;;;;;5050299;28;20212;-64
2023/08/29 05:09:09;;;;;;;0.30;0.30;;;14.30;99.90;;;;;;5050078;28;20257;-63
2023/08/29 05:11:35;;;;;;;0.00;0.00;;;14.30;99.90;;;;;;5051361;28;20177;-63
2023/08/29 05:14:00;;;;;;;0.00;0.00;;;14.30;99.90;;;;;;5051277;28;20587;-63
2023/08/29 05:16:26;;;;;;;0.00;0.00;;;14.30;99.90;;;;;;5051131;28;20187;-64
2023/08/29 05:18:51;;;;;;;0.00;0.00;;;14.30;99.90;;;;;;5051158;28;20177;-63
2023/08/29 05:21:17;;;;;;;0.00;0.00;;;14.30;99.90;;;;;;5051068;28;20224;-64
2023/08/29 05:23:42;;;;;;;0.15;0.15;;;14.30;99.90;;;;;;5051063;28;20188;-63
2023/08/29 05:26:08;;;;;;;0.00;0.00;;;14.30;99.90;;;;;;5050836;28;20173;-63
2023/08/29 05:28:34;;;;;;;0.00;0.00;;;14.40;99.90;;;;;;5051024;28;20260;-63
2023/08/29 05:30:59;;;;;;;0.00;0.00;;;14.40;99.90;;;;;;5050771;28;20232;-64
2023/08/29 05:33:25;;;;;;;0.00;0.00;;;14.40;99.90;;;;;;5050880;28;20252;-64
2023/08/29 05:35:50;;;;;;;0.00;0.00;;;14.40;99.90;;;;;;5051106;28;20177;-64
2023/08/29 05:38:16;;;;;;;0.00;0.00;;;14.40;99.90;;;;;;5049695;28;20574;-64
2023/08/29 05:40:41;;;;;;;0.00;0.00;;;14.50;99.90;;;;;;5050864;28;20582;-64
2023/08/29 05:43:07;;;;;;;0.00;0.00;;;14.50;99.90;;;;;;5050612;28;20174;-64
2023/08/29 05:45:32;;;;;;;0.00;0.00;;;14.50;99.90;;;;;;5049561;28;20640;-63
2023/08/29 05:47:58;;;;;;;0.00;0.00;;;14.50;99.90;;;;;;5050731;28;20169;-63
2023/08/29 05:50:23;;;;;;;0.00;0.00;;;14.60;99.90;;;;;;5050690;28;20252;-64
2023/08/29 05:52:49;;;;;;;0.10;0.10;;;14.60;99.90;;;;;;5050791;28;20213;-63
2023/08/29 05:55:14;;;;;;;0.00;0.00;;;14.60;99.90;;;;;;5050769;28;20188;-63
2023/08/29 05:57:40;;;;;;;0.00;0.00;;;14.60;99.90;;;;;;5050832;28;20185;-64
2023/08/29 06:00:07;;;;;;;0.00;0.00;;;14.70;99.90;;;;;;5050672;28;20181;-63
2023/08/29 06:02:33;;;;;;;0.00;0.00;;;14.70;99.90;;;;;;5050711;28;20181;-63
2023/08/29 06:04:58;;;;;;;0.00;0.00;;;14.80;99.90;;;;;;5050734;28;20188;-64
2023/08/29 06:07:24;;;;;;;0.00;0.00;;;14.80;99.90;;;;;;5050634;28;20177;-64
2023/08/29 06:09:50;;;;;;;0.00;0.00;;;14.90;99.90;;;;;;5050744;28;20205;-63
2023/08/29 06:12:16;;;;;;;0.00;0.00;;;14.90;99.90;;;;;;5050732;28;20510;-63
2023/08/29 06:14:41;;;;;;;0.00;0.00;;;14.90;99.90;;;;;;5050698;28;20643;-63
2023/08/29 06:17:07;;;;;;;0.00;0.00;;;15.00;99.90;;;;;;5050565;28;20200;-63
2023/08/29 06:19:33;;;;;;;0.10;0.10;;;15.10;99.90;;;;;;5050758;28;20587;-64
2023/08/29 06:21:58;;;;;;;0.00;0.00;;;15.20;99.90;;;;;;5050560;28;20227;-64
2023/08/29 06:24:24;;;;;;;0.00;0.00;;;15.40;99.90;;;;;;5050535;28;20574;-63
2023/08/29 06:26:50;;;;;;;0.03;0.03;;;15.50;99.90;;;;;;5050527;28;20698;-64
2023/08/29 06:29:15;;;;;;;0.05;0.05;;;15.50;99.90;;;;;;5050306;28;20212;-63
2023/08/29 06:31:41;;;;;;;0.13;0.13;;;15.60;99.90;;;;;;5050518;28;20232;-63
2023/08/29 06:34:07;;;;;;;0.00;0.00;;;15.80;99.90;;;;;;5050472;28;20182;-63
2023/08/29 06:36:33;;;;;;;0.00;0.00;;;15.90;99.90;;;;;;5050496;28;20178;-63
2023/08/29 06:38:58;;;;;;;0.00;0.00;;;16.00;99.90;;;;;;5050604;28;20174;-63
2023/08/29 06:41:24;;;;;;;0.00;0.00;;;16.00;99.90;;;;;;5053880;28;20188;-63
2023/08/29 06:43:49;;;;;;;0.00;0.00;;;16.00;99.90;;;;;;5054115;28;20181;-63
2023/08/29 06:46:16;;;;;;;0.00;0.00;;;16.00;99.90;;;;;;5053868;28;20714;-64
2023/08/29 06:48:41;;;;;;;0.05;0.05;;;16.20;99.90;;;;;;5054070;28;20177;-63
2023/08/29 06:51:07;;;;;;;0.08;0.08;;;16.20;99.90;;;;;;5053639;28;20257;-63
2023/08/29 06:53:33;;;;;;;0.00;0.00;;;16.20;99.90;;;;;;5053951;28;20184;-63
2023/08/29 06:55:58;;;;;;;0.00;0.00;;;16.30;99.90;;;;;;5053885;28;20170;-63
2023/08/29 06:58:25;;;;;;;0.00;0.00;;;16.30;99.90;;;;;;5053615;28;20185;-63
2023/08/29 07:00:52;;;;;;;0.00;0.00;;;16.30;99.90;;;;;;5053526;28;20193;-63
2023/08/29 07:03:18;;;;;;;0.00;0.00;;;16.20;99.90;;;;;;5053639;28;20170;-63
2023/08/29 07:05:43;;;;;;;0.00;0.00;;;16.30;99.90;;;;;;5053675;28;20181;-64
2023/08/29 07:08:09;;;;;;;0.00;0.00;;;16.20;99.90;;;;;;5053417;28;20687;-63
2023/08/29 07:10:35;;;;;;;0.00;0.00;;;16.20;99.90;;;;;;5053509;28;20704;-64
2023/08/29 07:13:00;;;;;;;0.00;0.00;;;16.10;99.90;;;;;;5052290;28;20204;-63
2023/08/29 07:15:26;;;;;;;0.00;0.00;;;16.20;99.90;;;;;;5053421;28;20173;-63
2023/08/29 07:17:53;;;;;;;0.00;0.00;;;16.20;99.90;;;;;;5053574;28;20260;-63
2023/08/29 07:20:19;;;;;;;0.00;0.00;;;16.20;99.90;;;;;;5053338;28;20174;-63
2023/08/29 07:22:45;;;;;;;0.00;0.00;;;16.20;99.90;;;;;;5053317;28;20186;-63
2023/08/29 07:25:12;;;;;;;0.00;0.00;;;16.20;99.90;;;;;;5053193;28;20181;-63
2023/08/29 07:27:38;;;;;;;0.00;0.00;;;16.20;99.90;;;;;;5052008;28;20165;-63
2023/08/29 07:30:05;;;;;;;0.00;0.00;;;16.20;99.90;;;;;;5052839;28;20239;-63
2023/08/29 07:32:31;;;;;;;0.00;0.00;;;16.30;99.90;;;;;;5053065;28;20269;-63
2023/08/29 07:34:57;;;;;;;0.00;0.00;;;16.30;99.90;;;;;;5053142;28;20264;-63
2023/08/29 07:37:23;;;;;;;0.00;0.00;;;16.30;99.90;;;;;;5051773;28;20185;-63
2023/08/29 07:39:49;;;;;;;0.00;0.00;;;16.40;99.90;;;;;;5053031;28;20177;-63
2023/08/29 07:42:16;;;;;;;0.00;0.00;;;16.40;99.90;;;;;;5053068;28;20185;-63
2023/08/29 07:44:42;;;;;;;0.00;0.00;;;16.40;99.90;;;;;;5053208;28;20181;-64
2023/08/29 07:47:08;;;;;;;0.00;0.00;;;16.40;99.90;;;;;;5052843;28;20177;-63
2023/08/29 07:49:34;;;;;;;0.40;0.40;;;16.40;99.90;;;;;;5053000;28;20216;-63
2023/08/29 07:52:00;;;;;;;0.00;0.00;;;16.40;99.90;;;;;;5052950;28;20231;-63
2023/08/29 07:54:26;;;;;;;0.00;0.00;;;16.40;99.90;;;;;;5052715;28;20174;-63
2023/08/29 07:56:52;;;;;;;0.32;0.25;;;16.50;99.90;;;;;;5052955;28;20261;-63
2023/08/29 07:59:17;;;;;;;0.00;0.00;;;16.50;99.90;;;;;;5052657;28;20523;-63
2023/08/29 08:01:43;;;;;;;0.00;0.00;;;16.60;99.90;;;;;;5052775;28;20629;-63
2023/08/29 08:04:08;;;;;;;0.00;0.00;;;16.60;99.90;;;;;;5052455;28;20260;-63
2023/08/29 08:06:34;;;;;;;0.60;0.60;;;16.60;99.90;;;;;;5052608;28;20172;-63
2023/08/29 08:09:00;;;;;;;0.05;0.05;;;16.50;99.90;;;;;;5052522;28;20205;-63
2023/08/29 08:11:26;;;;;;;0.00;0.00;;;16.50;99.90;;;;;;5052359;28;20263;-63
2023/08/29 08:13:51;;;;;;;0.10;0.10;;;16.40;99.90;;;;;;5052500;28;20174;-63
2023/08/29 08:16:17;;;;;;;0.03;0.03;;;16.50;99.90;;;;;;5052429;28;20189;-63
2023/08/29 08:18:42;;;;;;;0.00;0.00;;;16.60;99.90;;;;;;5052439;28;20225;-63
2023/08/29 08:21:08;;;;;;;0.10;0.10;;;16.70;99.90;;;;;;5052141;28;20178;-63
2023/08/29 08:23:33;;;;;;;0.00;0.00;;;16.70;99.90;;;;;;5052376;28;20304;-63
2023/08/29 08:25:59;;;;;;;0.00;0.00;;;16.70;99.90;;;;;;5052250;28;20174;-63
2023/08/29 08:28:25;;;;;;;0.00;0.00;;;16.80;99.90;;;;;;5052125;28;20188;-63
2023/08/29 08:30:50;;;;;;;0.00;0.00;;;16.80;99.90;;;;;;5051897;28;20240;-63
2023/08/29 08:33:16;;;;;;;0.00;0.00;;;16.90;99.90;;;;;;5052145;28;20651;-63
2023/08/29 08:35:42;;;;;;;0.00;0.00;;;17.00;99.90;;;;;;5052050;28;20189;-63
2023/08/29 08:38:07;;;;;;;0.00;0.00;;;17.00;99.90;;;;;;5051801;28;20236;-63
2023/08/29 08:40:36;;;;;;;0.00;0.00;;;17.00;99.90;;;;;;5052074;28;20185;-63
2023/08/29 08:43:04;;;;;;;0.00;0.00;;;17.00;99.90;;;;;;5051901;28;20192;-63
2023/08/29 08:45:30;;;;;;;0.03;0.03;;;17.10;99.90;;;;;;5052063;28;20177;-63
2023/08/29 08:47:57;;;;;;;0.00;0.00;;;17.10;99.90;;;;;;5051946;28;20184;-63
2023/08/29 08:50:24;;;;;;;0.00;0.00;;;17.20;99.90;;;;;;5050287;28;20227;-63
2023/08/29 08:52:51;;;;;;;0.00;0.00;;;17.20;99.90;;;;;;5051759;28;20264;-63
2023/08/29 08:55:17;;;;;;;0.00;0.00;;;17.30;99.90;;;;;;5051688;28;20215;-63
2023/08/29 08:57:43;;;;;;;0.00;0.00;;;17.20;99.90;;;;;;5051745;28;20181;-63
2023/08/29 09:00:09;;;;;;;0.00;0.00;;;17.10;99.90;;;;;;5051608;28;20256;-63
2023/08/29 09:02:37;;;;;;;0.00;0.00;;;17.10;99.90;;;;;;5051215;28;20208;-63
2023/08/29 09:05:03;;;;;;;0.00;0.00;;;17.20;99.90;;;;;;5051611;28;20181;-63
2023/08/29 09:07:28;;;;;;;0.00;0.00;;;17.40;99.90;;;;;;5051438;28;20273;-63
2023/08/29 09:10:17;;;;;;;0.00;0.00;;;17.50;99.90;;;;;;5051557;28;20237;-63
2023/08/29 09:12:50;;;;;;;0.00;0.00;;;17.60;99.90;;;;;;5051542;28;20204;-63
2023/08/29 09:15:18;;;;;;;0.00;0.00;;;17.80;99.90;;;;;;5051480;28;20218;-63
2023/08/29 09:17:45;;;;;;;0.00;0.00;;;17.90;99.90;;;;;;5051724;28;20571;-63
2023/08/29 09:20:11;;;;;;;0.00;0.00;;;18.00;99.90;;;;;;5051396;28;20177;-63
2023/08/29 09:22:40;;;;;;;0.10;0.10;;;18.20;99.90;;;;;;5051552;28;20176;-63
2023/08/29 09:25:06;;;;;;;0.00;0.00;;;18.40;99.90;;;;;;5051231;28;20185;-63
2023/08/29 09:27:48;;;;;;;0.00;0.00;;;18.50;99.90;;;;;;5051179;28;20650;-63
2023/08/29 09:30:15;;;;;;;0.00;0.00;;;18.50;99.90;;;;;;5050934;28;20273;-63
2023/08/29 09:32:42;;;;;;;0.00;0.00;;;18.60;99.90;;;;;;5051263;28;20292;-63
2023/08/29 09:35:12;;;;;;;0.00;0.00;;;18.80;99.90;;;;;;5051091;28;20174;-63
2023/08/29 09:37:42;;;;;;;0.00;0.00;;;19.00;99.90;;;;;;5051246;28;20607;-63
2023/08/29 09:40:09;;;;;;;0.00;0.00;;;19.20;99.90;;;;;;5051003;28;20185;-63
2023/08/29 09:42:35;;;;;;;0.10;0.10;;;19.50;99.90;;;;;;5051089;28;20543;-63
2023/08/29 09:45:01;;;;;;;0.08;0.08;;;19.60;99.90;;;;;;5051158;28;20185;-63
2023/08/29 09:47:29;;;;;;;0.00;0.00;;;19.60;99.90;;;;;;5050911;28;20213;-63
2023/08/29 09:49:54;;;;;;;0.00;0.00;;;19.70;99.90;;;;;;5050992;28;20216;-63
2023/08/29 09:52:21;;;;;;;0.00;0.00;;;19.80;99.90;;;;;;5050861;28;20181;-63
2023/08/29 09:54:52;;;;;;;0.00;0.00;;;19.70;99.90;;;;;;5050807;28;20192;-63
2023/08/29 09:57:21;;;;;;;0.00;0.00;;;19.50;99.90;;;;;;5050939;28;20174;-63
2023/08/29 09:59:50;;;;;;;0.00;0.00;;;19.30;99.90;;;;;;5050790;28;20223;-63
2023/08/29 10:02:20;;;;;;;0.00;0.00;;;19.20;99.90;;;;;;5049654;28;20181;-63
2023/08/29 10:04:48;;;;;;;0.55;0.55;;;19.20;99.90;;;;;;5050836;28;20178;-63
2023/08/29 10:07:18;;;;;;;0.00;0.00;;;19.30;99.90;;;;;;5050750;28;20215;-63
2023/08/29 10:09:44;;;;;;;0.00;0.00;;;19.60;99.90;;;;;;5050738;28;20312;-63
2023/08/29 10:12:11;;;;;;;0.00;0.00;;;19.90;99.90;;;;;;5051006;28;20176;-64
2023/08/29 10:14:38;;;;;;;0.15;0.15;;;20.20;99.90;;;;;;5051799;28;20251;-63
2023/08/29 10:17:05;;;;;;;0.00;0.00;;;20.60;99.90;;;;;;5054653;28;20231;-63
2023/08/29 10:19:32;;;;;;;0.00;0.00;;;20.80;99.90;;;;;;5054542;28;20186;-63
2023/08/29 10:21:59;;;;;;;0.22;0.10;;;20.90;99.90;;;;;;5054640;28;20200;-63
2023/08/29 10:24:26;;;;;;;0.00;0.00;;;20.90;99.90;;;;;;5054417;28;20185;-63
2023/08/29 10:26:52;;;;;;;0.00;0.00;;;20.70;99.90;;;;;;5054577;28;20181;-63
2023/08/29 10:29:18;;;;;;;0.00;0.00;;;20.60;99.90;;;;;;5054284;28;20508;-63
2023/08/29 10:31:45;;;;;;;0.00;0.00;;;20.50;99.90;;;;;;5054262;28;20237;-63
2023/08/29 10:34:13;;;;;;;0.00;0.00;;;20.40;99.90;;;;;;5054341;28;20521;-63
2023/08/29 10:36:39;;;;;;;0.00;0.00;;;20.30;99.90;;;;;;5054253;28;20190;-63
2023/08/29 10:39:09;;;;;;;0.00;0.00;;;20.20;99.90;;;;;;5054141;28;20181;-63
2023/08/29 10:41:51;;;;;;;0.00;0.00;;;20.30;99.90;;;;;;5054191;28;20213;-63
2023/08/29 10:44:32;;;;;;;0.00;0.00;;;20.40;99.90;;;;;;5054139;28;20181;-63
2023/08/29 10:47:23;;;;;;;0.00;0.00;;;20.50;99.90;;;;;;5054148;28;20252;-63
2023/08/29 10:49:59;;;;;;;0.00;0.00;;;20.40;99.90;;;;;;5053917;28;20212;-63
2023/08/29 10:52:38;;;;;;;0.00;0.00;;;20.50;99.90;;;;;;5053824;28;20238;-64
2023/08/29 10:55:08;;;;;;;0.00;0.00;;;20.50;99.90;;;;;;5053816;28;20154;-63
2023/08/29 10:57:34;;;;;;;0.00;0.00;;;20.60;99.90;;;;;;5054133;28;20181;-63
2023/08/29 10:59:59;;;;;;;0.00;0.00;;;20.60;99.90;;;;;;5052669;28;20185;-63
2023/08/29 11:02:29;;;;;;;0.03;0.03;;;20.70;99.90;;;;;;5053613;28;20258;-63
2023/08/29 11:05:03;;;;;;;0.00;0.00;;;20.70;99.90;;;;;;5053749;28;20177;-62
2023/08/29 11:07:29;;;;;;;0.00;0.00;;;20.70;99.90;;;;;;5053527;28;20173;-63
2023/08/29 11:10:15;;;;;;;0.00;0.00;;;20.80;99.90;;;;;;5053557;28;20347;-63
2023/08/29 11:13:06;;;;;;;0.00;0.00;;;20.90;99.90;;;;;;5053543;28;20203;-63
2023/08/29 11:15:47;;;;;;;0.00;0.00;;;21.00;99.90;;;;;;5053543;28;20177;-63
2023/08/29 11:18:21;;;;;;;0.00;0.00;;;21.20;99.90;;;;;;5053198;28;20824;-63
2023/08/29 11:20:47;;;;;;;0.00;0.00;;;21.30;99.90;;;;;;5053289;28;20182;-63
2023/08/29 11:23:13;;;;;;;0.00;0.00;;;21.10;99.90;;;;;;5053280;28;20231;-63
2023/08/29 11:25:39;;;;;;;0.00;0.00;;;21.10;99.90;;;;;;5052957;28;20226;-63
2023/08/29 11:28:05;;;;;;;0.00;0.00;;;21.30;99.90;;;;;;5053310;28;20174;-63
2023/08/29 11:30:31;;;;;;;0.00;0.00;;;21.40;99.90;;;;;;5052857;28;20611;-63
2023/08/29 11:32:56;;;;;;;0.00;0.00;;;21.40;99.90;;;;;;5053187;28;20545;-63
2023/08/29 11:35:22;;;;;;;0.00;0.00;;;21.30;99.90;;;;;;5053041;28;20538;-63
2023/08/29 11:37:48;;;;;;;0.10;0.10;;;21.20;99.90;;;;;;5052903;28;20185;-63
2023/08/29 11:40:18;;;;;;;0.00;0.00;;;21.20;99.90;;;;;;5052992;28;20177;-63
2023/08/29 11:42:44;;;;;;;0.00;0.00;;;21.20;99.90;;;;;;5053052;28;20169;-64
2023/08/29 11:45:10;;;;;;;0.00;0.00;;;21.20;99.90;;;;;;5052889;28;20710;-63
2023/08/29 11:47:35;;;;;;;0.00;0.00;;;21.00;99.90;;;;;;5052875;28;20219;-63
2023/08/29 11:50:04;;;;;;;0.00;0.00;;;20.90;99.90;;;;;;5052870;28;20217;-63
2023/08/29 11:52:30;;;;;;;0.00;0.00;;;20.80;99.90;;;;;;5052865;28;20201;-63
2023/08/29 11:54:56;;;;;;;0.00;0.00;;;20.80;99.90;;;;;;5052671;28;20182;-63
2023/08/29 11:57:23;;;;;;;0.00;0.00;;;20.90;99.90;;;;;;5052545;28;20181;-63
2023/08/29 11:59:51;;;;;;;0.00;0.00;;;20.90;99.90;;;;;;5052511;28;20501;-63
2023/08/29 12:02:17;;;;;;;0.00;0.00;;;20.90;99.90;;;;;;5052581;28;20185;-63
2023/08/29 12:04:44;;;;;;;0.00;0.00;;;20.90;99.90;;;;;;5052394;28;20173;-63
2023/08/29 12:07:13;;;;;;;0.00;0.00;;;20.80;99.90;;;;;;5052490;28;20189;-63
2023/08/29 12:09:42;;;;;;;0.00;0.00;;;20.80;99.90;;;;;;5052549;28;20165;-63
2023/08/29 12:12:09;;;;;;;0.00;0.00;;;20.70;99.90;;;;;;5052212;28;20235;-63
2023/08/29 12:14:50;;;;;;;0.00;0.00;;;20.80;99.90;;;;;;5052356;28;20223;-63
2023/08/29 12:17:16;;;;;;;0.00;0.00;;;20.70;99.90;;;;;;5051089;28;20223;-63
2023/08/29 12:19:42;;;;;;;0.00;0.00;;;20.60;99.90;;;;;;5052376;28;20186;-63
2023/08/29 12:22:07;;;;;;;0.00;0.00;;;20.60;99.90;;;;;;5052080;28;20176;-63
2023/08/29 12:24:33;;;;;;;0.17;0.17;;;20.50;99.90;;;;;;5052282;28;20185;-63
2023/08/29 12:26:59;;;;;;;0.00;0.00;;;20.40;99.90;;;;;;5052169;28;20690;-63
2023/08/29 12:29:25;;;;;;;0.00;0.00;;;20.10;99.90;;;;;;5051746;28;20177;-63
2023/08/29 12:31:50;;;;;;;0.00;0.00;;;19.70;99.90;;;;;;5051883;28;20233;-63
2023/08/29 12:34:16;;;;;;;0.00;0.00;;;19.30;99.90;;;;;;5051980;28;20173;-63
2023/08/29 12:36:41;;;;;;;0.00;0.00;;;19.00;99.90;;;;;;5051582;28;20251;-63
2023/08/29 12:39:08;;;;;;;0.00;0.00;;;18.90;99.90;;;;;;5051278;28;20651;-63
2023/08/29 12:41:35;;;;;;;0.00;0.00;;;18.90;99.90;;;;;;5051910;28;20210;-64
2023/08/29 12:44:01;;;;;;;0.00;0.00;;;18.90;99.90;;;;;;5051915;28;20165;-63
2023/08/29 12:46:26;;;;;;;0.00;0.00;;;19.00;99.90;;;;;;5051674;28;20173;-63